sensor_id;sensor_type;location;lat;lon;timestamp;P1;durP1;ratioP1;P2;durP2;ratioP2
56991;SDS011;42885;49.754;18.636;2024-02-15T00:02:16;12.87;;;8.43;;
56991;SDS011;42885;49.754;18.636;2024-02-15T00:05:05;17.02;;;8.80;;
56991;SDS011;42885;49.754;18.636;2024-02-15T00:07:55;14.85;;;8.45;;
56991;SDS011;42885;49.754;18.636;2024-02-15T00:10:44;13.48;;;8.60;;
56991;SDS011;42885;49.754;18.636;2024-02-15T00:13:33;15.32;;;9.20;;
56991;SDS011;42885;49.754;18.636;2024-02-15T00:16:23;16.15;;;8.18;;
56991;SDS011;42885;49.754;18.636;2024-02-15T00:19:16;16.65;;;8.65;;
56991;SDS011;42885;49.754;18.636;2024-02-15T00:22:05;16.45;;;9.35;;
56991;SDS011;42885;49.754;18.636;2024-02-15T00:24:54;21.33;;;9.65;;
56991;SDS011;42885;49.754;18.636;2024-02-15T00:27:45;17.70;;;10.00;;
56991;SDS011;42885;49.754;18.636;2024-02-15T00:30:34;17.80;;;9.78;;
56991;SDS011;42885;49.754;18.636;2024-02-15T00:33:24;17.10;;;10.48;;
56991;SDS011;42885;49.754;18.636;2024-02-15T00:36:13;15.65;;;10.35;;
56991;SDS011;42885;49.754;18.636;2024-02-15T00:39:03;19.15;;;11.30;;
56991;SDS011;42885;49.754;18.636;2024-02-15T00:41:53;15.63;;;10.43;;
56991;SDS011;42885;49.754;18.636;2024-02-15T00:44:42;16.37;;;10.48;;
56991;SDS011;42885;49.754;18.636;2024-02-15T00:47:31;19.52;;;10.70;;
56991;SDS011;42885;49.754;18.636;2024-02-15T00:50:20;15.93;;;10.23;;
56991;SDS011;42885;49.754;18.636;2024-02-15T00:53:10;14.68;;;9.83;;
56991;SDS011;42885;49.754;18.636;2024-02-15T00:56:00;19.55;;;10.75;;
56991;SDS011;42885;49.754;18.636;2024-02-15T00:58:49;18.17;;;10.47;;
56991;SDS011;42885;49.754;18.636;2024-02-15T01:01:39;20.50;;;10.35;;
56991;SDS011;42885;49.754;18.636;2024-02-15T01:04:28;20.82;;;11.18;;
56991;SDS011;42885;49.754;18.636;2024-02-15T01:07:17;20.65;;;11.38;;
56991;SDS011;42885;49.754;18.636;2024-02-15T01:10:06;22.73;;;10.73;;
56991;SDS011;42885;49.754;18.636;2024-02-15T01:12:56;20.93;;;11.93;;
56991;SDS011;42885;49.754;18.636;2024-02-15T01:15:45;21.57;;;10.85;;
56991;SDS011;42885;49.754;18.636;2024-02-15T01:18:35;19.65;;;10.18;;
56991;SDS011;42885;49.754;18.636;2024-02-15T01:21:25;19.70;;;10.43;;
56991;SDS011;42885;49.754;18.636;2024-02-15T01:24:14;16.87;;;10.58;;
56991;SDS011;42885;49.754;18.636;2024-02-15T01:27:03;16.50;;;9.73;;
56991;SDS011;42885;49.754;18.636;2024-02-15T01:29:54;16.23;;;10.03;;
56991;SDS011;42885;49.754;18.636;2024-02-15T01:32:43;19.00;;;8.60;;
56991;SDS011;42885;49.754;18.636;2024-02-15T01:35:32;21.68;;;9.75;;
56991;SDS011;42885;49.754;18.636;2024-02-15T01:38:21;13.13;;;9.00;;
56991;SDS011;42885;49.754;18.636;2024-02-15T01:41:11;18.13;;;9.40;;
56991;SDS011;42885;49.754;18.636;2024-02-15T01:44:00;15.50;;;8.88;;
56991;SDS011;42885;49.754;18.636;2024-02-15T01:46:50;18.45;;;9.63;;
56991;SDS011;42885;49.754;18.636;2024-02-15T01:49:41;15.88;;;8.58;;
56991;SDS011;42885;49.754;18.636;2024-02-15T01:52:30;15.55;;;9.45;;
56991;SDS011;42885;49.754;18.636;2024-02-15T01:55:19;16.57;;;10.20;;
56991;SDS011;42885;49.754;18.636;2024-02-15T01:58:09;16.27;;;9.47;;
56991;SDS011;42885;49.754;18.636;2024-02-15T02:01:00;23.67;;;9.33;;
56991;SDS011;42885;49.754;18.636;2024-02-15T02:03:49;15.88;;;8.95;;
56991;SDS011;42885;49.754;18.636;2024-02-15T02:06:39;13.65;;;9.18;;
56991;SDS011;42885;49.754;18.636;2024-02-15T02:09:28;16.90;;;9.55;;
56991;SDS011;42885;49.754;18.636;2024-02-15T02:12:17;14.78;;;8.78;;
56991;SDS011;42885;49.754;18.636;2024-02-15T02:15:07;22.07;;;9.90;;
56991;SDS011;42885;49.754;18.636;2024-02-15T02:17:59;15.28;;;9.80;;
56991;SDS011;42885;49.754;18.636;2024-02-15T02:20:49;14.13;;;9.53;;
56991;SDS011;42885;49.754;18.636;2024-02-15T02:23:37;16.17;;;10.60;;
56991;SDS011;42885;49.754;18.636;2024-02-15T02:26:26;13.03;;;9.15;;
56991;SDS011;42885;49.754;18.636;2024-02-15T02:29:17;13.70;;;9.73;;
56991;SDS011;42885;49.754;18.636;2024-02-15T02:32:06;14.68;;;9.70;;
56991;SDS011;42885;49.754;18.636;2024-02-15T02:34:56;15.08;;;10.13;;
56991;SDS011;42885;49.754;18.636;2024-02-15T02:37:45;17.48;;;10.58;;
56991;SDS011;42885;49.754;18.636;2024-02-15T02:40:34;17.73;;;9.78;;
56991;SDS011;42885;49.754;18.636;2024-02-15T02:43:24;17.77;;;9.85;;
56991;SDS011;42885;49.754;18.636;2024-02-15T02:46:13;15.00;;;9.35;;
56991;SDS011;42885;49.754;18.636;2024-02-15T02:49:02;13.15;;;9.30;;
56991;SDS011;42885;49.754;18.636;2024-02-15T02:51:52;13.53;;;9.07;;
56991;SDS011;42885;49.754;18.636;2024-02-15T02:54:41;14.70;;;10.48;;
56991;SDS011;42885;49.754;18.636;2024-02-15T02:57:31;18.57;;;10.13;;
56991;SDS011;42885;49.754;18.636;2024-02-15T03:00:20;14.87;;;9.68;;
56991;SDS011;42885;49.754;18.636;2024-02-15T03:03:09;16.35;;;9.30;;
56991;SDS011;42885;49.754;18.636;2024-02-15T03:05:58;13.90;;;9.83;;
56991;SDS011;42885;49.754;18.636;2024-02-15T03:08:49;15.25;;;10.05;;
56991;SDS011;42885;49.754;18.636;2024-02-15T03:11:39;19.00;;;10.90;;
56991;SDS011;42885;49.754;18.636;2024-02-15T03:14:29;17.35;;;10.50;;
56991;SDS011;42885;49.754;18.636;2024-02-15T03:17:19;16.00;;;9.18;;
56991;SDS011;42885;49.754;18.636;2024-02-15T03:20:09;16.25;;;10.38;;
56991;SDS011;42885;49.754;18.636;2024-02-15T03:23:00;14.43;;;9.85;;
56991;SDS011;42885;49.754;18.636;2024-02-15T03:25:50;15.63;;;9.83;;
56991;SDS011;42885;49.754;18.636;2024-02-15T03:28:40;18.73;;;10.88;;
56991;SDS011;42885;49.754;18.636;2024-02-15T03:31:30;14.73;;;10.28;;
56991;SDS011;42885;49.754;18.636;2024-02-15T03:34:20;16.30;;;9.83;;
56991;SDS011;42885;49.754;18.636;2024-02-15T03:37:11;14.43;;;10.23;;
56991;SDS011;42885;49.754;18.636;2024-02-15T03:40:00;15.90;;;10.23;;
56991;SDS011;42885;49.754;18.636;2024-02-15T03:42:51;20.63;;;10.50;;
56991;SDS011;42885;49.754;18.636;2024-02-15T03:45:41;14.45;;;10.08;;
56991;SDS011;42885;49.754;18.636;2024-02-15T03:48:32;14.83;;;10.90;;
56991;SDS011;42885;49.754;18.636;2024-02-15T03:51:21;17.02;;;10.20;;
56991;SDS011;42885;49.754;18.636;2024-02-15T03:54:12;19.35;;;9.68;;
56991;SDS011;42885;49.754;18.636;2024-02-15T03:57:01;14.63;;;9.75;;
56991;SDS011;42885;49.754;18.636;2024-02-15T03:59:50;14.55;;;9.63;;
56991;SDS011;42885;49.754;18.636;2024-02-15T04:02:40;14.20;;;9.50;;
56991;SDS011;42885;49.754;18.636;2024-02-15T04:05:30;13.15;;;9.40;;
56991;SDS011;42885;49.754;18.636;2024-02-15T04:08:19;18.85;;;11.40;;
56991;SDS011;42885;49.754;18.636;2024-02-15T04:11:08;13.35;;;8.85;;
56991;SDS011;42885;49.754;18.636;2024-02-15T04:13:58;12.55;;;8.60;;
56991;SDS011;42885;49.754;18.636;2024-02-15T04:16:47;16.82;;;9.03;;
56991;SDS011;42885;49.754;18.636;2024-02-15T04:19:35;13.45;;;8.18;;
56991;SDS011;42885;49.754;18.636;2024-02-15T04:22:25;12.53;;;8.48;;
56991;SDS011;42885;49.754;18.636;2024-02-15T04:25:15;13.93;;;8.13;;
56991;SDS011;42885;49.754;18.636;2024-02-15T04:28:04;12.68;;;8.85;;
56991;SDS011;42885;49.754;18.636;2024-02-15T04:30:55;13.83;;;8.40;;
56991;SDS011;42885;49.754;18.636;2024-02-15T04:33:43;15.72;;;9.75;;
56991;SDS011;42885;49.754;18.636;2024-02-15T04:36:33;16.25;;;9.15;;
56991;SDS011;42885;49.754;18.636;2024-02-15T04:39:23;16.85;;;8.88;;
56991;SDS011;42885;49.754;18.636;2024-02-15T04:42:14;12.18;;;8.48;;
56991;SDS011;42885;49.754;18.636;2024-02-15T04:45:06;15.32;;;9.10;;
56991;SDS011;42885;49.754;18.636;2024-02-15T04:47:55;15.58;;;9.50;;
56991;SDS011;42885;49.754;18.636;2024-02-15T04:50:45;18.60;;;9.40;;
56991;SDS011;42885;49.754;18.636;2024-02-15T04:53:36;14.58;;;8.83;;
56991;SDS011;42885;49.754;18.636;2024-02-15T04:56:26;15.88;;;9.63;;
56991;SDS011;42885;49.754;18.636;2024-02-15T04:59:16;16.32;;;10.28;;
56991;SDS011;42885;49.754;18.636;2024-02-15T05:02:07;18.03;;;10.33;;
56991;SDS011;42885;49.754;18.636;2024-02-15T05:04:56;19.05;;;11.40;;
56991;SDS011;42885;49.754;18.636;2024-02-15T05:07:45;17.65;;;12.10;;
56991;SDS011;42885;49.754;18.636;2024-02-15T05:10:36;19.77;;;12.00;;
56991;SDS011;42885;49.754;18.636;2024-02-15T05:13:26;21.65;;;11.55;;
56991;SDS011;42885;49.754;18.636;2024-02-15T05:16:14;20.40;;;12.33;;
56991;SDS011;42885;49.754;18.636;2024-02-15T05:19:03;20.37;;;12.77;;
56991;SDS011;42885;49.754;18.636;2024-02-15T05:21:52;21.43;;;12.50;;
56991;SDS011;42885;49.754;18.636;2024-02-15T05:24:42;20.85;;;13.08;;
56991;SDS011;42885;49.754;18.636;2024-02-15T05:27:32;21.73;;;12.28;;
56991;SDS011;42885;49.754;18.636;2024-02-15T05:30:24;24.15;;;12.15;;
56991;SDS011;42885;49.754;18.636;2024-02-15T05:33:13;19.15;;;11.28;;
56991;SDS011;42885;49.754;18.636;2024-02-15T05:36:02;19.02;;;11.33;;
56991;SDS011;42885;49.754;18.636;2024-02-15T05:38:52;20.40;;;10.28;;
56991;SDS011;42885;49.754;18.636;2024-02-15T05:41:42;17.10;;;10.60;;
56991;SDS011;42885;49.754;18.636;2024-02-15T05:44:31;15.93;;;9.88;;
56991;SDS011;42885;49.754;18.636;2024-02-15T05:47:21;13.90;;;9.18;;
56991;SDS011;42885;49.754;18.636;2024-02-15T05:50:10;16.55;;;10.20;;
56991;SDS011;42885;49.754;18.636;2024-02-15T05:52:59;17.62;;;9.95;;
56991;SDS011;42885;49.754;18.636;2024-02-15T05:55:48;14.25;;;8.93;;
56991;SDS011;42885;49.754;18.636;2024-02-15T05:58:38;18.82;;;12.47;;
56991;SDS011;42885;49.754;18.636;2024-02-15T06:01:27;76.00;;;57.40;;
56991;SDS011;42885;49.754;18.636;2024-02-15T06:04:16;16.17;;;9.20;;
56991;SDS011;42885;49.754;18.636;2024-02-15T06:07:05;17.00;;;9.23;;
56991;SDS011;42885;49.754;18.636;2024-02-15T06:09:56;17.60;;;9.33;;
56991;SDS011;42885;49.754;18.636;2024-02-15T06:12:47;14.43;;;9.18;;
56991;SDS011;42885;49.754;18.636;2024-02-15T06:15:37;17.70;;;8.93;;
56991;SDS011;42885;49.754;18.636;2024-02-15T06:18:27;17.37;;;8.68;;
56991;SDS011;42885;49.754;18.636;2024-02-15T06:21:19;19.67;;;9.68;;
56991;SDS011;42885;49.754;18.636;2024-02-15T06:24:09;14.87;;;9.48;;
56991;SDS011;42885;49.754;18.636;2024-02-15T06:26:58;13.65;;;8.85;;
56991;SDS011;42885;49.754;18.636;2024-02-15T06:29:49;13.88;;;9.10;;
56991;SDS011;42885;49.754;18.636;2024-02-15T06:33:01;23.57;;;11.43;;
56991;SDS011;42885;49.754;18.636;2024-02-15T06:36:04;16.67;;;9.88;;
56991;SDS011;42885;49.754;18.636;2024-02-15T06:39:11;14.43;;;8.75;;
56991;SDS011;42885;49.754;18.636;2024-02-15T06:42:18;17.00;;;9.50;;
56991;SDS011;42885;49.754;18.636;2024-02-15T06:45:06;15.23;;;8.55;;
56991;SDS011;42885;49.754;18.636;2024-02-15T06:47:57;15.28;;;9.15;;
56991;SDS011;42885;49.754;18.636;2024-02-15T06:50:49;16.62;;;9.20;;
56991;SDS011;42885;49.754;18.636;2024-02-15T06:53:39;12.35;;;8.55;;
56991;SDS011;42885;49.754;18.636;2024-02-15T06:56:27;18.42;;;9.40;;
56991;SDS011;42885;49.754;18.636;2024-02-15T06:59:17;15.53;;;8.90;;
56991;SDS011;42885;49.754;18.636;2024-02-15T07:02:08;18.30;;;9.00;;
56991;SDS011;42885;49.754;18.636;2024-02-15T07:04:58;16.60;;;9.23;;
56991;SDS011;42885;49.754;18.636;2024-02-15T07:07:47;19.23;;;9.83;;
56991;SDS011;42885;49.754;18.636;2024-02-15T07:10:37;17.80;;;9.75;;
56991;SDS011;42885;49.754;18.636;2024-02-15T07:13:27;15.78;;;9.25;;
56991;SDS011;42885;49.754;18.636;2024-02-15T07:16:16;16.30;;;9.73;;
56991;SDS011;42885;49.754;18.636;2024-02-15T07:19:06;15.17;;;9.10;;
56991;SDS011;42885;49.754;18.636;2024-02-15T07:21:56;14.87;;;9.80;;
56991;SDS011;42885;49.754;18.636;2024-02-15T07:24:46;20.90;;;10.72;;
56991;SDS011;42885;49.754;18.636;2024-02-15T07:27:34;18.15;;;10.45;;
56991;SDS011;42885;49.754;18.636;2024-02-15T07:30:24;15.70;;;8.88;;
56991;SDS011;42885;49.754;18.636;2024-02-15T07:33:13;15.88;;;9.70;;
56991;SDS011;42885;49.754;18.636;2024-02-15T07:36:04;15.55;;;9.28;;
56991;SDS011;42885;49.754;18.636;2024-02-15T07:38:53;17.90;;;10.23;;
56991;SDS011;42885;49.754;18.636;2024-02-15T07:41:44;15.58;;;9.40;;
56991;SDS011;42885;49.754;18.636;2024-02-15T07:44:34;17.32;;;10.18;;
56991;SDS011;42885;49.754;18.636;2024-02-15T07:47:23;16.62;;;9.45;;
56991;SDS011;42885;49.754;18.636;2024-02-15T07:50:17;15.60;;;9.15;;
56991;SDS011;42885;49.754;18.636;2024-02-15T07:53:10;18.23;;;9.73;;
56991;SDS011;42885;49.754;18.636;2024-02-15T07:55:59;14.95;;;9.05;;
56991;SDS011;42885;49.754;18.636;2024-02-15T07:58:48;14.00;;;9.18;;
56991;SDS011;42885;49.754;18.636;2024-02-15T08:01:42;17.32;;;11.25;;
56991;SDS011;42885;49.754;18.636;2024-02-15T08:04:33;15.03;;;8.23;;
56991;SDS011;42885;49.754;18.636;2024-02-15T08:07:23;11.73;;;8.50;;
56991;SDS011;42885;49.754;18.636;2024-02-15T08:10:12;14.13;;;8.83;;
56991;SDS011;42885;49.754;18.636;2024-02-15T08:13:01;15.40;;;8.37;;
56991;SDS011;42885;49.754;18.636;2024-02-15T08:15:50;10.67;;;7.93;;
56991;SDS011;42885;49.754;18.636;2024-02-15T08:18:40;13.90;;;8.18;;
56991;SDS011;42885;49.754;18.636;2024-02-15T08:21:31;12.37;;;8.00;;
56991;SDS011;42885;49.754;18.636;2024-02-15T08:24:23;14.90;;;7.97;;
56991;SDS011;42885;49.754;18.636;2024-02-15T08:27:12;16.80;;;8.48;;
56991;SDS011;42885;49.754;18.636;2024-02-15T08:30:03;12.63;;;7.72;;
56991;SDS011;42885;49.754;18.636;2024-02-15T08:32:54;13.53;;;8.90;;
56991;SDS011;42885;49.754;18.636;2024-02-15T08:35:43;12.33;;;8.10;;
56991;SDS011;42885;49.754;18.636;2024-02-15T08:38:32;12.53;;;8.18;;
56991;SDS011;42885;49.754;18.636;2024-02-15T08:41:21;15.78;;;8.70;;
56991;SDS011;42885;49.754;18.636;2024-02-15T08:44:12;12.40;;;7.90;;
56991;SDS011;42885;49.754;18.636;2024-02-15T08:47:03;10.60;;;7.72;;
56991;SDS011;42885;49.754;18.636;2024-02-15T08:49:52;14.95;;;7.95;;
56991;SDS011;42885;49.754;18.636;2024-02-15T08:52:41;14.38;;;8.23;;
56991;SDS011;42885;49.754;18.636;2024-02-15T08:55:31;14.30;;;7.90;;
56991;SDS011;42885;49.754;18.636;2024-02-15T08:58:22;14.87;;;8.18;;
56991;SDS011;42885;49.754;18.636;2024-02-15T09:01:12;14.80;;;7.80;;
56991;SDS011;42885;49.754;18.636;2024-02-15T09:04:02;9.67;;;6.70;;
56991;SDS011;42885;49.754;18.636;2024-02-15T09:06:51;10.55;;;7.05;;
56991;SDS011;42885;49.754;18.636;2024-02-15T09:09:41;11.68;;;6.95;;
56991;SDS011;42885;49.754;18.636;2024-02-15T09:12:31;10.25;;;6.62;;
56991;SDS011;42885;49.754;18.636;2024-02-15T09:15:20;12.55;;;7.03;;
56991;SDS011;42885;49.754;18.636;2024-02-15T09:18:09;10.40;;;6.45;;
56991;SDS011;42885;49.754;18.636;2024-02-15T09:20:58;11.73;;;7.28;;
56991;SDS011;42885;49.754;18.636;2024-02-15T09:23:47;12.93;;;7.05;;
56991;SDS011;42885;49.754;18.636;2024-02-15T09:26:36;13.65;;;7.33;;
56991;SDS011;42885;49.754;18.636;2024-02-15T09:29:25;13.53;;;7.30;;
56991;SDS011;42885;49.754;18.636;2024-02-15T09:32:17;14.77;;;6.97;;
56991;SDS011;42885;49.754;18.636;2024-02-15T09:35:06;11.70;;;7.35;;
56991;SDS011;42885;49.754;18.636;2024-02-15T09:37:56;14.83;;;7.90;;
56991;SDS011;42885;49.754;18.636;2024-02-15T09:40:48;12.28;;;6.72;;
56991;SDS011;42885;49.754;18.636;2024-02-15T09:43:37;14.27;;;7.47;;
56991;SDS011;42885;49.754;18.636;2024-02-15T09:46:27;11.83;;;6.77;;
56991;SDS011;42885;49.754;18.636;2024-02-15T09:49:16;9.60;;;6.05;;
56991;SDS011;42885;49.754;18.636;2024-02-15T09:52:08;9.70;;;5.65;;
56991;SDS011;42885;49.754;18.636;2024-02-15T09:54:59;10.37;;;5.10;;
56991;SDS011;42885;49.754;18.636;2024-02-15T09:57:51;12.17;;;5.00;;
56991;SDS011;42885;49.754;18.636;2024-02-15T10:00:40;8.40;;;5.78;;
56991;SDS011;42885;49.754;18.636;2024-02-15T10:03:31;11.30;;;6.30;;
56991;SDS011;42885;49.754;18.636;2024-02-15T10:06:22;8.33;;;6.12;;
56991;SDS011;42885;49.754;18.636;2024-02-15T10:09:25;8.95;;;4.72;;
56991;SDS011;42885;49.754;18.636;2024-02-15T10:12:15;9.40;;;5.80;;
56991;SDS011;42885;49.754;18.636;2024-02-15T10:15:05;11.35;;;6.42;;
56991;SDS011;42885;49.754;18.636;2024-02-15T10:17:55;9.13;;;4.85;;
56991;SDS011;42885;49.754;18.636;2024-02-15T10:20:46;8.75;;;5.25;;
56991;SDS011;42885;49.754;18.636;2024-02-15T10:23:39;12.07;;;6.60;;
56991;SDS011;42885;49.754;18.636;2024-02-15T10:26:27;11.10;;;5.85;;
56991;SDS011;42885;49.754;18.636;2024-02-15T10:29:16;13.45;;;6.08;;
56991;SDS011;42885;49.754;18.636;2024-02-15T10:32:07;12.05;;;6.28;;
56991;SDS011;42885;49.754;18.636;2024-02-15T10:34:58;9.70;;;6.72;;
56991;SDS011;42885;49.754;18.636;2024-02-15T10:37:50;10.88;;;5.80;;
56991;SDS011;42885;49.754;18.636;2024-02-15T10:40:40;14.38;;;7.60;;
56991;SDS011;42885;49.754;18.636;2024-02-15T10:43:30;4.30;;;2.47;;
56991;SDS011;42885;49.754;18.636;2024-02-15T10:46:25;11.65;;;5.92;;
56991;SDS011;42885;49.754;18.636;2024-02-15T10:49:15;7.10;;;4.60;;
56991;SDS011;42885;49.754;18.636;2024-02-15T10:52:09;5.15;;;2.80;;
56991;SDS011;42885;49.754;18.636;2024-02-15T10:55:05;7.90;;;2.50;;
56991;SDS011;42885;49.754;18.636;2024-02-15T10:58:00;2.73;;;1.80;;
56991;SDS011;42885;49.754;18.636;2024-02-15T11:00:50;13.77;;;6.40;;
56991;SDS011;42885;49.754;18.636;2024-02-15T11:03:42;10.48;;;5.65;;
56991;SDS011;42885;49.754;18.636;2024-02-15T11:06:33;5.22;;;3.08;;
56991;SDS011;42885;49.754;18.636;2024-02-15T11:09:27;4.15;;;2.35;;
56991;SDS011;42885;49.754;18.636;2024-02-15T11:12:17;3.58;;;2.25;;
56991;SDS011;42885;49.754;18.636;2024-02-15T11:15:07;2.77;;;2.00;;
56991;SDS011;42885;49.754;18.636;2024-02-15T11:17:59;4.57;;;2.30;;
56991;SDS011;42885;49.754;18.636;2024-02-15T11:20:48;3.90;;;2.05;;
56991;SDS011;42885;49.754;18.636;2024-02-15T11:23:40;5.08;;;2.62;;
56991;SDS011;42885;49.754;18.636;2024-02-15T11:26:44;8.78;;;2.50;;
56991;SDS011;42885;49.754;18.636;2024-02-15T11:30:00;3.67;;;2.20;;
56991;SDS011;42885;49.754;18.636;2024-02-15T11:32:42;7.42;;;3.90;;
56991;SDS011;42885;49.754;18.636;2024-02-15T11:38:27;3.42;;;2.25;;
56991;SDS011;42885;49.754;18.636;2024-02-15T11:41:19;4.78;;;2.83;;
56991;SDS011;42885;49.754;18.636;2024-02-15T11:44:09;4.37;;;3.00;;
56991;SDS011;42885;49.754;18.636;2024-02-15T11:47:01;4.45;;;2.42;;
56991;SDS011;42885;49.754;18.636;2024-02-15T11:49:52;8.13;;;3.20;;
56991;SDS011;42885;49.754;18.636;2024-02-15T11:52:42;5.62;;;2.25;;
56991;SDS011;42885;49.754;18.636;2024-02-15T11:55:39;5.33;;;2.65;;
56991;SDS011;42885;49.754;18.636;2024-02-15T11:58:29;3.98;;;2.37;;
56991;SDS011;42885;49.754;18.636;2024-02-15T12:01:31;4.42;;;2.80;;
56991;SDS011;42885;49.754;18.636;2024-02-15T12:04:39;5.23;;;2.70;;
56991;SDS011;42885;49.754;18.636;2024-02-15T12:07:46;3.65;;;2.22;;
56991;SDS011;42885;49.754;18.636;2024-02-15T12:10:56;4.28;;;3.10;;
56991;SDS011;42885;49.754;18.636;2024-02-15T12:14:04;3.75;;;2.37;;
56991;SDS011;42885;49.754;18.636;2024-02-15T12:17:11;3.55;;;1.72;;
56991;SDS011;42885;49.754;18.636;2024-02-15T12:20:19;3.58;;;2.25;;
56991;SDS011;42885;49.754;18.636;2024-02-15T12:23:10;5.17;;;2.90;;
56991;SDS011;42885;49.754;18.636;2024-02-15T12:26:01;3.95;;;2.30;;
56991;SDS011;42885;49.754;18.636;2024-02-15T12:28:55;3.55;;;2.22;;
56991;SDS011;42885;49.754;18.636;2024-02-15T12:31:45;3.55;;;2.05;;
56991;SDS011;42885;49.754;18.636;2024-02-15T12:34:35;3.03;;;2.13;;
56991;SDS011;42885;49.754;18.636;2024-02-15T12:37:25;7.87;;;2.60;;
56991;SDS011;42885;49.754;18.636;2024-02-15T12:40:18;3.70;;;1.80;;
56991;SDS011;42885;49.754;18.636;2024-02-15T12:43:09;2.83;;;1.87;;
56991;SDS011;42885;49.754;18.636;2024-02-15T12:45:59;4.17;;;2.70;;
56991;SDS011;42885;49.754;18.636;2024-02-15T12:48:49;4.12;;;1.95;;
56991;SDS011;42885;49.754;18.636;2024-02-15T12:51:40;5.53;;;2.27;;
56991;SDS011;42885;49.754;18.636;2024-02-15T12:54:30;2.47;;;1.82;;
56991;SDS011;42885;49.754;18.636;2024-02-15T12:57:20;3.15;;;1.80;;
56991;SDS011;42885;49.754;18.636;2024-02-15T13:00:10;4.40;;;2.20;;
56991;SDS011;42885;49.754;18.636;2024-02-15T13:03:06;5.10;;;1.80;;
56991;SDS011;42885;49.754;18.636;2024-02-15T13:05:58;3.17;;;2.30;;
56991;SDS011;42885;49.754;18.636;2024-02-15T13:08:47;4.65;;;2.22;;
56991;SDS011;42885;49.754;18.636;2024-02-15T13:11:36;2.80;;;2.00;;
56991;SDS011;42885;49.754;18.636;2024-02-15T13:14:26;3.40;;;1.98;;
56991;SDS011;42885;49.754;18.636;2024-02-15T13:17:17;9.63;;;2.62;;
56991;SDS011;42885;49.754;18.636;2024-02-15T13:20:06;9.25;;;2.37;;
56991;SDS011;42885;49.754;18.636;2024-02-15T13:22:57;4.80;;;2.70;;
56991;SDS011;42885;49.754;18.636;2024-02-15T13:28:40;5.23;;;2.60;;
56991;SDS011;42885;49.754;18.636;2024-02-15T13:31:30;5.37;;;2.80;;
56991;SDS011;42885;49.754;18.636;2024-02-15T13:34:20;5.25;;;3.20;;
56991;SDS011;42885;49.754;18.636;2024-02-15T13:37:09;3.47;;;2.40;;
56991;SDS011;42885;49.754;18.636;2024-02-15T13:40:00;9.57;;;2.80;;
56991;SDS011;42885;49.754;18.636;2024-02-15T13:42:51;5.63;;;2.97;;
56991;SDS011;42885;49.754;18.636;2024-02-15T13:45:43;3.85;;;2.60;;
56991;SDS011;42885;49.754;18.636;2024-02-15T13:48:40;4.78;;;2.12;;
56991;SDS011;42885;49.754;18.636;2024-02-15T13:51:30;4.22;;;1.95;;
56991;SDS011;42885;49.754;18.636;2024-02-15T13:54:21;8.20;;;2.80;;
56991;SDS011;42885;49.754;18.636;2024-02-15T13:57:10;3.20;;;2.30;;
56991;SDS011;42885;49.754;18.636;2024-02-15T14:00:01;2.98;;;2.20;;
56991;SDS011;42885;49.754;18.636;2024-02-15T14:02:53;8.40;;;4.17;;
56991;SDS011;42885;49.754;18.636;2024-02-15T14:05:44;7.37;;;3.87;;
56991;SDS011;42885;49.754;18.636;2024-02-15T14:08:35;6.30;;;3.17;;
56991;SDS011;42885;49.754;18.636;2024-02-15T14:11:25;6.28;;;3.02;;
56991;SDS011;42885;49.754;18.636;2024-02-15T14:14:13;5.65;;;2.20;;
56991;SDS011;42885;49.754;18.636;2024-02-15T14:17:04;3.70;;;2.05;;
56991;SDS011;42885;49.754;18.636;2024-02-15T14:19:54;4.17;;;2.08;;
56991;SDS011;42885;49.754;18.636;2024-02-15T14:22:44;6.30;;;4.72;;
56991;SDS011;42885;49.754;18.636;2024-02-15T14:25:39;11.28;;;6.45;;
56991;SDS011;42885;49.754;18.636;2024-02-15T14:28:29;12.03;;;8.23;;
56991;SDS011;42885;49.754;18.636;2024-02-15T14:31:18;18.65;;;9.08;;
56991;SDS011;42885;49.754;18.636;2024-02-15T14:34:25;15.95;;;9.00;;
56991;SDS011;42885;49.754;18.636;2024-02-15T14:37:16;17.92;;;9.45;;
56991;SDS011;42885;49.754;18.636;2024-02-15T14:40:06;15.25;;;8.55;;
56991;SDS011;42885;49.754;18.636;2024-02-15T14:42:56;15.13;;;9.43;;
56991;SDS011;42885;49.754;18.636;2024-02-15T14:45:47;15.13;;;8.60;;
56991;SDS011;42885;49.754;18.636;2024-02-15T14:48:37;12.10;;;8.53;;
56991;SDS011;42885;49.754;18.636;2024-02-15T14:51:31;15.30;;;9.28;;
56991;SDS011;42885;49.754;18.636;2024-02-15T14:54:21;15.45;;;9.70;;
56991;SDS011;42885;49.754;18.636;2024-02-15T14:57:10;14.40;;;9.20;;
56991;SDS011;42885;49.754;18.636;2024-02-15T14:59:59;16.05;;;9.58;;
56991;SDS011;42885;49.754;18.636;2024-02-15T15:02:48;15.80;;;8.78;;
56991;SDS011;42885;49.754;18.636;2024-02-15T15:05:42;15.80;;;9.10;;
56991;SDS011;42885;49.754;18.636;2024-02-15T15:08:49;13.18;;;8.88;;
56991;SDS011;42885;49.754;18.636;2024-02-15T15:11:56;18.10;;;9.15;;
56991;SDS011;42885;49.754;18.636;2024-02-15T15:15:03;15.72;;;9.40;;
56991;SDS011;42885;49.754;18.636;2024-02-15T15:17:53;13.78;;;8.43;;
56991;SDS011;42885;49.754;18.636;2024-02-15T15:20:43;16.27;;;9.10;;
56991;SDS011;42885;49.754;18.636;2024-02-15T15:23:33;15.20;;;9.58;;
56991;SDS011;42885;49.754;18.636;2024-02-15T15:26:22;13.95;;;9.15;;
56991;SDS011;42885;49.754;18.636;2024-02-15T15:29:11;16.57;;;9.83;;
56991;SDS011;42885;49.754;18.636;2024-02-15T15:32:02;15.72;;;9.65;;
56991;SDS011;42885;49.754;18.636;2024-02-15T15:34:52;15.45;;;9.55;;
56991;SDS011;42885;49.754;18.636;2024-02-15T15:37:41;17.35;;;10.05;;
56991;SDS011;42885;49.754;18.636;2024-02-15T15:40:30;20.50;;;11.73;;
56991;SDS011;42885;49.754;18.636;2024-02-15T15:43:20;19.07;;;9.78;;
56991;SDS011;42885;49.754;18.636;2024-02-15T15:46:13;17.37;;;9.00;;
56991;SDS011;42885;49.754;18.636;2024-02-15T15:49:04;16.93;;;9.47;;
56991;SDS011;42885;49.754;18.636;2024-02-15T15:51:53;14.50;;;9.43;;
56991;SDS011;42885;49.754;18.636;2024-02-15T15:54:42;14.25;;;8.58;;
56991;SDS011;42885;49.754;18.636;2024-02-15T15:57:32;11.53;;;7.58;;
56991;SDS011;42885;49.754;18.636;2024-02-15T16:00:22;14.15;;;8.38;;
56991;SDS011;42885;49.754;18.636;2024-02-15T16:03:11;16.45;;;8.80;;
56991;SDS011;42885;49.754;18.636;2024-02-15T16:06:01;15.15;;;8.70;;
56991;SDS011;42885;49.754;18.636;2024-02-15T16:08:51;15.30;;;8.73;;
56991;SDS011;42885;49.754;18.636;2024-02-15T16:11:40;13.80;;;8.35;;
56991;SDS011;42885;49.754;18.636;2024-02-15T16:14:30;15.72;;;8.93;;
56991;SDS011;42885;49.754;18.636;2024-02-15T16:17:19;14.75;;;8.73;;
56991;SDS011;42885;49.754;18.636;2024-02-15T16:20:10;15.63;;;8.65;;
56991;SDS011;42885;49.754;18.636;2024-02-15T16:23:00;18.42;;;10.23;;
56991;SDS011;42885;49.754;18.636;2024-02-15T16:25:50;17.02;;;10.88;;
56991;SDS011;42885;49.754;18.636;2024-02-15T16:28:40;23.13;;;13.53;;
56991;SDS011;42885;49.754;18.636;2024-02-15T16:31:29;19.15;;;11.18;;
56991;SDS011;42885;49.754;18.636;2024-02-15T16:34:18;18.48;;;11.50;;
56991;SDS011;42885;49.754;18.636;2024-02-15T16:37:08;17.45;;;11.05;;
56991;SDS011;42885;49.754;18.636;2024-02-15T16:39:57;21.40;;;13.63;;
56991;SDS011;42885;49.754;18.636;2024-02-15T16:42:47;24.15;;;14.45;;
56991;SDS011;42885;49.754;18.636;2024-02-15T16:45:38;25.35;;;13.30;;